Terminal Aerodrome Forecast
Issued by NWS Burlington, VT

Home | Current Version | Previous Version | Text Only | Print | Product List | Glossary On
Versions: 1 2 3 4 5 6 7 8 9 10 11 12
000
FTUS41 KBTV 230500
TAFBTV
TAF
KBTV 230520Z 2306/2406 18006KT P6SM SKC
     FM231200 18010KT P6SM SCT100
     FM231400 20012G22KT P6SM VCSH BKN040 OVC080
     FM232100 31011G18KT P6SM BKN040
     FM240200 35008KT P6SM SCT025 BKN080=

USA.gov is the U.S. government's official web portal to all federal, state and local government web resources and services.